Time;durP1;ratioP1;P1;durP2;ratioP2;P2;SDS_P1;SDS_P2;PMS_P1;PMS_P2;Temp;Humidity;BMP_temperature;BMP_pressure;BME280_temperature;BME280_humidity;BME280_pressure;Samples;Min_cycle;Max_cycle;Signal;HPM_P1;HPM_P2
2022/10/01 00:00:28;;;;;;;6.45;4.20;;;12.70;99.90;;;;;;5111587;28;20196;-53
2022/10/01 00:02:53;;;;;;;6.63;3.53;;;12.60;99.90;;;;;;5111456;28;20169;-52
2022/10/01 00:05:20;;;;;;;5.93;3.63;;;12.70;99.90;;;;;;5111860;28;20248;-53
2022/10/01 00:07:46;;;;;;;4.45;3.20;;;12.70;99.90;;;;;;5111804;28;20165;-53
2022/10/01 00:10:13;;;;;;;8.13;3.25;;;12.80;99.90;;;;;;5110887;28;20169;-53
2022/10/01 00:12:44;;;;;;;8.25;3.13;;;12.80;99.90;;;;;;5112276;28;20169;-53
2022/10/01 00:15:10;;;;;;;4.18;3.05;;;12.80;99.90;;;;;;5112395;28;20244;-53
2022/10/01 00:17:36;;;;;;;6.78;3.45;;;12.70;99.90;;;;;;5111660;28;20229;-53
2022/10/01 00:20:02;;;;;;;8.15;3.58;;;12.70;99.90;;;;;;5111498;28;20204;-52
2022/10/01 00:22:32;;;;;;;5.60;3.78;;;12.70;99.90;;;;;;5111752;28;20586;-52
2022/10/01 00:24:58;;;;;;;9.15;4.57;;;12.70;99.90;;;;;;5114084;28;20175;-52
2022/10/01 00:27:25;;;;;;;7.60;4.53;;;12.60;99.90;;;;;;5115541;28;20243;-52
2022/10/01 00:29:51;;;;;;;3.28;2.47;;;12.60;99.90;;;;;;5115561;28;20174;-53
2022/10/01 00:32:17;;;;;;;3.45;2.75;;;12.60;99.90;;;;;;5115428;28;20169;-52
2022/10/01 00:34:42;;;;;;;6.40;2.90;;;12.50;99.90;;;;;;5115375;28;20164;-53
2022/10/01 00:37:09;;;;;;;4.05;2.70;;;12.50;99.90;;;;;;5115880;28;20192;-53
2022/10/01 00:39:35;;;;;;;7.13;3.78;;;12.40;99.90;;;;;;5115635;28;20327;-53
2022/10/01 00:42:03;;;;;;;4.40;3.17;;;12.40;99.90;;;;;;5115308;28;20172;-53
2022/10/01 00:44:29;;;;;;;7.00;3.38;;;12.40;99.90;;;;;;5115549;27;20164;-53
2022/10/01 00:47:00;;;;;;;5.80;3.28;;;12.40;99.90;;;;;;5115150;28;20161;-53
2022/10/01 00:49:29;;;;;;;5.32;2.85;;;12.30;99.90;;;;;;5113806;28;20169;-53
2022/10/01 00:51:59;;;;;;;4.00;3.08;;;12.20;99.90;;;;;;5115143;28;20168;-53
2022/10/01 00:54:31;;;;;;;6.10;3.40;;;12.10;99.90;;;;;;5115058;28;20345;-53
2022/10/01 00:56:59;;;;;;;4.75;3.20;;;12.00;99.90;;;;;;5115147;28;20176;-53
2022/10/01 00:59:26;;;;;;;6.63;3.78;;;12.00;99.90;;;;;;5114977;28;20204;-53
2022/10/01 01:01:53;;;;;;;4.68;3.50;;;12.00;99.90;;;;;;5115005;27;20661;-53
2022/10/01 01:04:18;;;;;;;4.68;3.40;;;12.00;99.90;;;;;;5114972;28;20204;-53
2022/10/01 01:06:50;;;;;;;4.20;3.38;;;12.00;99.90;;;;;;5114813;28;20217;-53
2022/10/01 01:09:16;;;;;;;6.60;2.97;;;11.90;99.90;;;;;;5114754;28;20700;-53
2022/10/01 01:11:51;;;;;;;3.97;2.90;;;11.90;99.90;;;;;;5115094;28;20256;-53
2022/10/01 01:14:40;;;;;;;5.00;3.13;;;11.90;99.90;;;;;;5114751;28;20674;-52
2022/10/01 01:17:13;;;;;;;3.88;3.20;;;11.90;99.90;;;;;;5106497;28;20185;-53
2022/10/01 01:20:10;;;;;;;4.72;4.22;;;11.80;99.90;;;;;;5114807;28;20206;-53
2022/10/01 01:22:42;;;;;;;10.50;4.22;;;11.80;99.90;;;;;;5114545;28;20175;-53
2022/10/01 01:25:17;;;;;;;5.63;4.03;;;11.80;99.90;;;;;;5114891;28;20168;-52
2022/10/01 01:28:03;;;;;;;5.03;3.75;;;11.80;99.90;;;;;;5114852;28;20517;-53
2022/10/01 01:30:31;;;;;;;6.78;3.53;;;12.00;99.90;;;;;;5114319;28;20160;-53
2022/10/01 01:33:11;;;;;;;5.70;3.47;;;11.80;99.90;;;;;;5114337;28;20232;-53
2022/10/01 01:35:50;;;;;;;3.60;3.22;;;11.70;99.90;;;;;;5114341;28;20172;-53
2022/10/01 01:38:27;;;;;;;4.93;3.38;;;11.70;99.90;;;;;;5114551;28;20527;-53
2022/10/01 01:40:56;;;;;;;3.58;3.28;;;11.60;99.90;;;;;;5114337;28;20161;-53
2022/10/01 01:43:44;;;;;;;3.50;3.10;;;11.60;99.90;;;;;;5114170;28;20175;-53
2022/10/01 01:46:12;;;;;;;4.03;2.72;;;11.60;99.90;;;;;;5114564;27;20255;-53
2022/10/01 01:48:40;;;;;;;3.58;2.95;;;11.70;99.90;;;;;;5114612;27;20532;-53
2022/10/01 01:51:23;;;;;;;4.63;3.20;;;11.60;99.90;;;;;;5114198;28;20171;-53
2022/10/01 01:53:49;;;;;;;3.05;2.75;;;11.60;99.90;;;;;;5113899;28;20160;-53
2022/10/01 01:56:16;;;;;;;3.22;2.92;;;11.60;99.90;;;;;;5113692;28;20216;-53
2022/10/01 01:58:43;;;;;;;2.58;2.38;;;11.60;99.90;;;;;;5114048;27;20188;-52
2022/10/01 02:01:29;;;;;;;5.05;3.05;;;11.60;99.90;;;;;;5114137;28;20524;-52
2022/10/01 02:03:55;;;;;;;2.70;2.40;;;11.60;99.90;;;;;;5113831;28;20163;-53
2022/10/01 02:06:33;;;;;;;4.38;2.67;;;11.60;99.90;;;;;;5113721;28;20245;-52
2022/10/01 02:09:10;;;;;;;4.68;2.72;;;11.60;99.90;;;;;;5113685;28;20655;-52
2022/10/01 02:11:42;;;;;;;3.63;2.55;;;11.70;99.90;;;;;;5113908;28;20615;-53
2022/10/01 02:14:29;;;;;;;5.25;3.50;;;11.70;99.90;;;;;;5113857;28;20161;-53
2022/10/01 02:17:43;;;;;;;4.03;3.25;;;11.70;99.90;;;;;;5113400;28;20168;-53
2022/10/01 02:20:20;;;;;;;6.43;3.45;;;11.80;99.90;;;;;;5070878;28;20206;-53
2022/10/01 02:22:51;;;;;;;6.13;3.70;;;11.70;99.90;;;;;;5070657;28;20170;-53
2022/10/01 02:25:21;;;;;;;4.43;3.17;;;11.70;99.90;;;;;;5095205;27;20181;-53
2022/10/01 02:27:54;;;;;;;5.78;4.28;;;11.80;99.90;;;;;;5113293;28;20199;-53
2022/10/01 02:30:21;;;;;;;5.10;3.58;;;11.80;99.90;;;;;;5113148;28;20172;-53
2022/10/01 02:32:50;;;;;;;4.35;3.58;;;11.80;99.90;;;;;;5113038;28;20165;-53
2022/10/01 02:35:18;;;;;;;4.15;3.17;;;11.80;99.90;;;;;;5113416;28;20626;-53
2022/10/01 02:37:47;;;;;;;5.63;2.90;;;11.80;99.90;;;;;;5113154;28;20171;-53
2022/10/01 02:40:16;;;;;;;7.43;4.65;;;11.80;99.90;;;;;;5112839;28;20661;-53
2022/10/01 02:42:47;;;;;;;7.38;5.20;;;11.80;99.90;;;;;;5112928;28;20164;-53
2022/10/01 02:45:21;;;;;;;7.00;5.18;;;11.80;99.90;;;;;;5112877;28;20165;-52
2022/10/01 02:47:53;;;;;;;6.45;3.95;;;11.80;99.90;;;;;;5112338;28;20175;-53
2022/10/01 02:50:21;;;;;;;4.57;3.42;;;11.80;99.90;;;;;;5113098;28;20172;-53
2022/10/01 02:52:54;;;;;;;8.63;6.03;;;11.70;99.90;;;;;;5113064;28;20179;-53
2022/10/01 02:55:27;;;;;;;6.82;3.70;;;11.70;99.90;;;;;;5112583;28;20291;-52
2022/10/01 02:57:56;;;;;;;6.43;2.60;;;11.60;99.90;;;;;;5112576;28;20196;-53
2022/10/01 03:00:22;;;;;;;4.07;2.40;;;11.60;99.90;;;;;;5112571;27;20204;-53
2022/10/01 03:02:48;;;;;;;2.92;2.20;;;11.60;99.90;;;;;;5111310;28;20171;-53
2022/10/01 03:05:15;;;;;;;5.13;2.40;;;11.60;99.90;;;;;;5111199;28;20639;-53
2022/10/01 03:07:42;;;;;;;5.18;2.75;;;11.50;99.90;;;;;;5113040;28;20243;-52
2022/10/01 03:10:09;;;;;;;5.22;2.45;;;11.50;99.90;;;;;;5112853;28;20165;-52
2022/10/01 03:12:35;;;;;;;2.75;2.10;;;11.50;99.90;;;;;;5112335;28;20164;-52
2022/10/01 03:15:01;;;;;;;2.15;1.70;;;11.60;99.90;;;;;;5112452;28;20286;-52
2022/10/01 03:17:27;;;;;;;3.10;2.08;;;11.50;99.90;;;;;;5112584;27;20172;-52
2022/10/01 03:19:53;;;;;;;2.35;1.73;;;11.60;99.90;;;;;;5112214;28;20200;-52
2022/10/01 03:22:23;;;;;;;1.90;1.48;;;11.60;99.90;;;;;;5112328;28;20257;-53
2022/10/01 03:24:52;;;;;;;1.50;1.40;;;11.50;99.90;;;;;;5128917;27;20560;-52
2022/10/01 03:27:19;;;;;;;2.28;1.60;;;11.60;99.90;;;;;;5132804;27;20164;-52
2022/10/01 03:29:45;;;;;;;1.70;1.60;;;11.50;99.90;;;;;;5132762;27;20164;-52
2022/10/01 03:32:11;;;;;;;3.78;1.70;;;11.50;99.90;;;;;;5133019;27;20527;-53
2022/10/01 03:34:36;;;;;;;4.03;1.58;;;11.50;99.90;;;;;;5132962;27;20164;-53
2022/10/01 03:37:02;;;;;;;2.60;1.83;;;11.50;99.90;;;;;;5132621;27;20272;-53
2022/10/01 03:39:28;;;;;;;2.65;1.45;;;11.50;99.90;;;;;;5132501;27;20640;-52
2022/10/01 03:41:54;;;;;;;1.90;1.52;;;11.50;99.90;;;;;;5132583;27;20183;-52
2022/10/01 03:44:19;;;;;;;2.30;1.95;;;11.50;99.90;;;;;;5132553;27;20208;-52
2022/10/01 03:46:45;;;;;;;2.53;1.75;;;11.50;99.90;;;;;;5132613;27;20164;-52
2022/10/01 03:49:10;;;;;;;3.45;2.40;;;11.50;99.90;;;;;;5132868;27;20217;-52
2022/10/01 03:51:36;;;;;;;1.35;1.25;;;11.50;99.90;;;;;;5132970;27;20262;-52
2022/10/01 03:54:04;;;;;;;1.52;1.20;;;11.60;99.90;;;;;;5132311;27;20211;-52
2022/10/01 03:56:30;;;;;;;4.05;1.80;;;11.60;99.90;;;;;;5132391;27;20639;-52
2022/10/01 03:58:55;;;;;;;1.80;1.70;;;11.60;99.90;;;;;;5134853;27;20191;-52
2022/10/01 04:01:21;;;;;;;1.90;1.10;;;11.60;99.90;;;;;;5136571;27;20224;-52
2022/10/01 04:03:49;;;;;;;2.60;1.58;;;11.60;99.90;;;;;;5136572;27;20164;-52
2022/10/01 04:06:15;;;;;;;3.22;2.10;;;11.70;99.90;;;;;;5136531;27;20617;-53
2022/10/01 04:08:41;;;;;;;2.38;1.70;;;11.80;99.90;;;;;;5136604;27;20164;-53
2022/10/01 04:11:07;;;;;;;3.60;1.58;;;11.80;99.90;;;;;;5136833;27;20212;-52
2022/10/01 04:13:33;;;;;;;1.55;1.45;;;11.90;99.90;;;;;;5136345;27;20175;-52
2022/10/01 04:15:59;;;;;;;1.63;1.00;;;11.80;99.90;;;;;;5136351;27;20164;-52
2022/10/01 04:18:25;;;;;;;2.45;1.95;;;11.80;99.90;;;;;;5135990;27;20259;-52
2022/10/01 04:20:51;;;;;;;3.08;1.60;;;12.00;99.90;;;;;;5136276;27;20255;-52
2022/10/01 04:23:16;;;;;;;3.88;1.85;;;12.10;99.90;;;;;;5136297;27;20247;-52
2022/10/01 04:25:42;;;;;;;3.10;1.80;;;12.20;99.90;;;;;;5136176;27;20164;-52
2022/10/01 04:28:10;;;;;;;3.28;1.73;;;12.10;99.90;;;;;;5136478;27;20536;-52
2022/10/01 04:30:39;;;;;;;3.83;1.88;;;12.20;99.90;;;;;;5136379;27;20160;-52
2022/10/01 04:33:06;;;;;;;1.70;1.20;;;12.20;99.90;;;;;;5135982;27;20168;-52
2022/10/01 04:35:33;;;;;;;2.60;1.40;;;12.20;99.90;;;;;;5135953;27;20170;-52
2022/10/01 04:38:05;;;;;;;1.15;0.98;;;12.20;99.90;;;;;;5136098;27;20172;-52
2022/10/01 04:40:35;;;;;;;1.67;0.38;;;12.20;99.90;;;;;;5135883;27;20204;-53
2022/10/01 04:43:07;;;;;;;0.20;0.20;;;12.20;99.90;;;;;;5135943;27;21169;-53
2022/10/01 04:45:32;;;;;;;1.85;0.10;;;12.20;99.90;;;;;;5136002;27;20168;-53
2022/10/01 04:47:58;;;;;;;0.60;0.25;;;12.30;99.90;;;;;;5135736;27;20171;-52
2022/10/01 04:50:25;;;;;;;1.45;0.20;;;12.40;99.90;;;;;;5135913;27;20183;-53
2022/10/01 04:52:52;;;;;;;1.55;0.52;;;12.40;99.90;;;;;;5135667;27;20184;-52
2022/10/01 04:55:19;;;;;;;0.38;0.35;;;12.50;99.90;;;;;;5135537;27;20216;-53
2022/10/01 04:57:44;;;;;;;1.63;1.25;;;12.50;99.90;;;;;;5135550;27;20183;-53
2022/10/01 05:00:13;;;;;;;2.30;0.90;;;12.50;99.90;;;;;;5135742;27;20196;-53
2022/10/01 05:02:39;;;;;;;2.30;1.55;;;12.50;99.90;;;;;;5135824;27;20179;-53
2022/10/01 05:05:06;;;;;;;2.47;1.60;;;12.50;99.90;;;;;;5135410;27;20156;-52
2022/10/01 05:07:33;;;;;;;3.90;1.33;;;12.50;99.90;;;;;;5135373;27;20160;-53
2022/10/01 05:09:59;;;;;;;1.83;1.25;;;12.40;99.90;;;;;;5134704;27;20188;-52
2022/10/01 05:12:26;;;;;;;1.67;1.00;;;12.40;99.90;;;;;;5135260;27;20168;-53
2022/10/01 05:14:54;;;;;;;1.35;1.15;;;12.40;99.90;;;;;;5135108;27;20214;-53
2022/10/01 05:17:20;;;;;;;1.38;1.08;;;12.40;99.90;;;;;;5135265;27;20163;-53
2022/10/01 05:19:46;;;;;;;1.60;1.50;;;12.30;99.90;;;;;;5135030;27;20298;-52
2022/10/01 05:22:12;;;;;;;3.10;2.20;;;12.30;99.90;;;;;;5135387;27;20188;-53
2022/10/01 05:24:38;;;;;;;5.80;2.42;;;12.30;99.90;;;;;;5135525;27;20156;-53
2022/10/01 05:27:08;;;;;;;3.90;2.17;;;12.20;99.90;;;;;;5135278;27;20193;-52
2022/10/01 05:29:34;;;;;;;3.42;2.05;;;12.20;99.90;;;;;;5135315;27;20172;-53
2022/10/01 05:31:59;;;;;;;3.75;1.70;;;12.20;99.90;;;;;;5134824;27;20160;-53
2022/10/01 05:34:25;;;;;;;2.33;1.45;;;12.20;99.90;;;;;;5134880;27;20172;-53
2022/10/01 05:36:51;;;;;;;3.42;2.40;;;12.20;99.90;;;;;;5134776;27;20171;-52
2022/10/01 05:39:16;;;;;;;3.25;1.63;;;12.20;99.90;;;;;;5134758;27;20195;-53
2022/10/01 05:41:42;;;;;;;2.35;0.95;;;12.20;99.90;;;;;;5134748;27;20164;-53
2022/10/01 05:44:07;;;;;;;1.42;0.60;;;12.20;99.90;;;;;;5135099;27;20173;-53
2022/10/01 05:46:33;;;;;;;0.50;0.50;;;12.30;99.90;;;;;;5134531;27;20213;-53
2022/10/01 05:48:59;;;;;;;1.38;0.70;;;12.30;99.90;;;;;;5134590;27;20557;-52
2022/10/01 05:51:24;;;;;;;0.63;0.63;;;12.30;99.90;;;;;;5134492;27;20617;-53
2022/10/01 05:53:53;;;;;;;1.15;0.60;;;12.40;99.90;;;;;;5134575;27;20651;-52
2022/10/01 05:56:18;;;;;;;1.98;0.60;;;12.40;99.90;;;;;;5134274;27;20208;-53
2022/10/01 05:58:45;;;;;;;1.70;0.57;;;12.40;99.90;;;;;;5134323;27;20160;-53
2022/10/01 06:01:11;;;;;;;0.68;0.68;;;12.40;99.90;;;;;;5134553;27;20179;-53
2022/10/01 06:03:37;;;;;;;2.28;0.30;;;12.40;99.90;;;;;;5134696;27;20160;-53
2022/10/01 06:06:04;;;;;;;0.10;0.08;;;12.50;99.90;;;;;;5134323;27;20176;-53
2022/10/01 06:08:33;;;;;;;0.30;0.20;;;12.60;99.90;;;;;;5134361;27;20159;-52
2022/10/01 06:11:01;;;;;;;1.10;0.25;;;12.60;99.90;;;;;;5134158;27;20648;-52
2022/10/01 06:13:27;;;;;;;0.52;0.28;;;12.70;99.90;;;;;;5134085;27;20209;-53
2022/10/01 06:15:53;;;;;;;0.20;0.20;;;12.70;99.90;;;;;;5134075;27;20169;-53
2022/10/01 06:18:18;;;;;;;0.05;0.05;;;12.80;99.90;;;;;;5134030;27;20220;-52
2022/10/01 06:20:44;;;;;;;0.10;0.10;;;12.80;99.90;;;;;;5133673;27;20203;-52
2022/10/01 06:23:11;;;;;;;0.30;0.30;;;12.90;99.90;;;;;;5133619;27;20160;-53
2022/10/01 06:25:38;;;;;;;0.20;0.20;;;12.90;99.90;;;;;;5134355;27;20164;-52
2022/10/01 06:28:05;;;;;;;1.55;0.45;;;12.90;99.90;;;;;;5133808;27;20160;-52
2022/10/01 06:30:33;;;;;;;0.35;0.30;;;12.90;99.90;;;;;;5133682;27;20168;-52
2022/10/01 06:33:05;;;;;;;0.32;0.20;;;12.90;99.90;;;;;;5133474;27;20271;-52
2022/10/01 06:35:31;;;;;;;0.35;0.15;;;12.90;99.90;;;;;;5133506;27;20243;-52
2022/10/01 06:37:57;;;;;;;0.35;0.30;;;12.90;99.90;;;;;;5133488;27;20171;-52
2022/10/01 06:40:23;;;;;;;2.08;0.30;;;12.90;99.90;;;;;;5133549;27;20200;-52
2022/10/01 06:42:49;;;;;;;0.75;0.47;;;12.90;99.90;;;;;;5133504;27;20163;-52
2022/10/01 06:45:16;;;;;;;0.50;0.30;;;12.90;99.90;;;;;;5133185;27;20164;-52
2022/10/01 06:47:51;;;;;;;0.20;0.20;;;12.90;99.90;;;;;;5133081;27;20172;-52
2022/10/01 06:50:17;;;;;;;0.45;0.30;;;13.00;99.90;;;;;;5133374;27;20254;-52
2022/10/01 06:52:48;;;;;;;1.08;0.30;;;13.00;99.90;;;;;;5133220;27;20246;-52
2022/10/01 06:55:19;;;;;;;5.25;0.60;;;13.00;99.90;;;;;;5132932;27;20215;-52
2022/10/01 06:57:45;;;;;;;0.40;0.40;;;13.00;99.90;;;;;;5132877;27;20220;-52
2022/10/01 07:00:11;;;;;;;1.25;0.55;;;13.00;99.90;;;;;;5133043;27;20199;-52
2022/10/01 07:02:38;;;;;;;0.40;0.40;;;13.10;99.90;;;;;;5133522;27;20239;-52
2022/10/01 07:05:04;;;;;;;1.45;0.60;;;13.10;99.90;;;;;;5133234;27;20180;-52
2022/10/01 07:07:36;;;;;;;0.85;0.85;;;13.10;99.90;;;;;;5132964;27;20189;-52
2022/10/01 07:10:03;;;;;;;3.97;0.60;;;13.10;99.90;;;;;;5131678;27;20575;-52
2022/10/01 07:12:29;;;;;;;0.88;0.60;;;13.20;99.90;;;;;;5132843;27;20164;-52
2022/10/01 07:14:55;;;;;;;0.68;0.65;;;13.20;99.90;;;;;;5132948;27;20569;-52
2022/10/01 07:17:21;;;;;;;2.15;0.77;;;13.20;99.90;;;;;;5133146;27;20620;-52
2022/10/01 07:19:46;;;;;;;0.50;0.50;;;13.30;99.90;;;;;;5133013;27;20208;-52
2022/10/01 07:22:12;;;;;;;4.40;1.48;;;13.30;99.90;;;;;;5132602;27;20589;-52
2022/10/01 07:24:38;;;;;;;1.13;0.63;;;13.30;99.90;;;;;;5133110;27;20164;-53
2022/10/01 07:27:03;;;;;;;0.40;0.40;;;13.40;99.90;;;;;;5132764;27;20164;-52
2022/10/01 07:29:30;;;;;;;1.67;0.85;;;13.40;99.90;;;;;;5132763;27;20199;-52
2022/10/01 07:32:00;;;;;;;1.33;0.60;;;13.40;99.90;;;;;;5132866;27;20164;-52
2022/10/01 07:34:27;;;;;;;1.08;0.75;;;13.50;99.90;;;;;;5132174;27;20181;-52
2022/10/01 07:36:55;;;;;;;1.20;0.60;;;13.50;99.90;;;;;;5131172;27;20218;-52
2022/10/01 07:39:21;;;;;;;1.95;0.73;;;13.50;99.90;;;;;;5132549;27;20188;-52
2022/10/01 07:41:46;;;;;;;2.00;0.60;;;13.50;99.90;;;;;;5132612;27;20358;-52
2022/10/01 07:44:12;;;;;;;0.45;0.40;;;13.50;99.90;;;;;;5132447;27;20168;-52
2022/10/01 07:46:38;;;;;;;0.35;0.35;;;13.60;99.90;;;;;;5132964;27;20171;-52
2022/10/01 07:49:04;;;;;;;0.50;0.50;;;13.60;99.90;;;;;;5132524;27;20175;-52
2022/10/01 07:51:30;;;;;;;1.65;0.45;;;13.70;99.90;;;;;;5132491;27;20629;-52
2022/10/01 07:53:56;;;;;;;0.88;0.55;;;13.70;99.90;;;;;;5132381;27;20194;-53
2022/10/01 07:56:23;;;;;;;2.35;0.70;;;13.70;99.90;;;;;;5132390;27;20194;-53
2022/10/01 07:58:50;;;;;;;2.30;0.68;;;13.80;99.90;;;;;;5132227;27;20168;-53
2022/10/01 08:01:16;;;;;;;0.30;0.30;;;13.90;99.90;;;;;;5132657;27;20218;-53
2022/10/01 08:03:42;;;;;;;0.73;0.20;;;14.00;99.90;;;;;;5132309;27;20640;-53
2022/10/01 08:06:10;;;;;;;0.70;0.70;;;14.00;99.90;;;;;;5132669;27;20175;-53
2022/10/01 08:08:36;;;;;;;0.40;0.40;;;13.90;99.90;;;;;;5133000;27;20539;-53
2022/10/01 08:11:02;;;;;;;0.75;0.50;;;13.90;99.90;;;;;;5132373;27;20164;-53
2022/10/01 08:13:28;;;;;;;0.95;0.90;;;13.90;99.90;;;;;;5132849;27;20167;-53
2022/10/01 08:15:54;;;;;;;0.45;0.43;;;13.90;99.90;;;;;;5132173;27;20164;-53
2022/10/01 08:18:20;;;;;;;1.65;0.60;;;13.80;99.90;;;;;;5132236;27;20617;-53
2022/10/01 08:20:46;;;;;;;3.28;0.68;;;13.80;99.90;;;;;;5132144;27;20236;-53
2022/10/01 08:23:14;;;;;;;1.42;0.75;;;13.80;99.90;;;;;;5132172;27;20599;-53
2022/10/01 08:25:41;;;;;;;0.77;0.43;;;13.80;99.90;;;;;;5132182;27;20168;-53
2022/10/01 08:28:07;;;;;;;1.45;0.73;;;13.80;99.90;;;;;;5132434;27;20164;-52
2022/10/01 08:30:35;;;;;;;1.42;0.70;;;13.80;99.90;;;;;;5132161;27;20207;-53
2022/10/01 08:33:00;;;;;;;3.40;0.90;;;13.80;99.90;;;;;;5131928;27;20164;-52
2022/10/01 08:35:27;;;;;;;1.00;0.88;;;13.80;99.90;;;;;;5131983;27;20160;-53
2022/10/01 08:37:56;;;;;;;1.35;0.82;;;13.80;99.90;;;;;;5132072;27;20201;-53
2022/10/01 08:40:22;;;;;;;1.60;0.77;;;13.90;99.90;;;;;;5131801;27;20218;-52
2022/10/01 08:43:17;;;;;;;0.90;0.90;;;14.00;99.90;;;;;;5132322;27;20238;-53
2022/10/01 08:45:50;;;;;;;3.80;1.40;;;14.20;99.90;;;;;;5127522;27;20204;-53
2022/10/01 08:48:24;;;;;;;2.30;1.02;;;14.20;99.90;;;;;;5135944;27;20243;-53
2022/10/01 08:50:56;;;;;;;3.08;1.40;;;14.20;99.90;;;;;;5135708;27;20191;-53
2022/10/01 08:53:52;;;;;;;3.88;1.63;;;14.20;99.90;;;;;;5135534;27;20244;-53
2022/10/01 08:56:29;;;;;;;4.22;1.35;;;14.30;99.90;;;;;;5135325;27;20212;-53
2022/10/01 08:59:03;;;;;;;3.05;1.80;;;14.30;99.90;;;;;;5135478;27;20215;-55
2022/10/01 09:01:29;;;;;;;4.50;1.40;;;14.20;99.90;;;;;;5134283;27;20168;-52
2022/10/01 09:03:56;;;;;;;3.60;1.90;;;14.20;99.90;;;;;;5135516;27;20172;-52
2022/10/01 09:06:26;;;;;;;3.70;1.58;;;14.10;99.90;;;;;;5135509;27;20197;-52
2022/10/01 09:09:07;;;;;;;4.13;1.80;;;14.10;99.90;;;;;;5135633;27;20175;-52
2022/10/01 09:11:37;;;;;;;4.30;1.67;;;14.20;99.90;;;;;;5135424;27;20156;-52
2022/10/01 09:14:26;;;;;;;2.88;1.80;;;14.20;99.90;;;;;;5135206;27;20160;-52
2022/10/01 09:17:25;;;;;;;6.82;2.05;;;14.40;99.90;;;;;;5113628;27;20179;-52
2022/10/01 09:20:19;;;;;;;3.67;1.58;;;14.40;99.90;;;;;;5135194;27;20204;-52
2022/10/01 09:22:45;;;;;;;2.88;1.70;;;14.30;99.90;;;;;;5135397;27;20535;-52
2022/10/01 09:25:18;;;;;;;2.97;1.40;;;14.30;99.90;;;;;;5133368;27;20164;-52
2022/10/01 09:27:45;;;;;;;4.97;1.92;;;14.20;99.90;;;;;;5135112;27;20239;-52
2022/10/01 09:30:15;;;;;;;2.67;1.23;;;14.30;99.90;;;;;;5135121;27;20183;-52
2022/10/01 09:32:45;;;;;;;1.95;1.20;;;14.40;99.90;;;;;;5135007;27;20644;-52
2022/10/01 09:35:53;;;;;;;4.82;2.00;;;14.60;99.90;;;;;;5133652;27;20171;-52
2022/10/01 09:38:38;;;;;;;1.20;1.10;;;15.00;99.90;;;;;;5126272;27;20262;-52
2022/10/01 09:41:06;;;;;;;3.25;1.27;;;15.50;99.90;;;;;;5133784;27;20180;-52
2022/10/01 09:43:33;;;;;;;3.55;1.80;;;15.50;99.90;;;;;;5134575;27;20164;-52
2022/10/01 09:46:01;;;;;;;4.30;1.95;;;15.40;99.90;;;;;;5134635;27;20652;-53
2022/10/01 09:48:37;;;;;;;3.10;2.08;;;15.30;99.90;;;;;;5134743;27;20206;-52
2022/10/01 09:51:17;;;;;;;4.95;1.95;;;15.20;99.90;;;;;;5134586;27;20160;-53
2022/10/01 09:53:46;;;;;;;4.88;2.13;;;15.10;99.90;;;;;;5134626;27;20647;-54
2022/10/01 09:56:22;;;;;;;5.38;2.10;;;15.20;99.90;;;;;;5134252;27;20601;-54
2022/10/01 09:58:53;;;;;;;1.70;1.48;;;15.20;99.90;;;;;;5134486;27;20617;-54
2022/10/01 10:01:34;;;;;;;5.45;2.35;;;15.20;99.90;;;;;;5134681;27;20279;-54
2022/10/01 10:04:00;;;;;;;3.90;1.55;;;15.00;99.90;;;;;;5134482;27;20198;-53
2022/10/01 10:06:28;;;;;;;3.35;1.45;;;14.90;99.90;;;;;;5134363;27;20188;-54
2022/10/01 10:08:56;;;;;;;3.95;1.50;;;14.70;99.90;;;;;;5134604;27;20210;-54
2022/10/01 10:11:25;;;;;;;3.13;1.20;;;14.70;99.90;;;;;;5134215;27;20168;-54
2022/10/01 10:13:58;;;;;;;1.63;1.17;;;14.60;99.90;;;;;;5133911;27;20546;-54
2022/10/01 10:16:27;;;;;;;3.58;1.58;;;14.60;99.90;;;;;;5134393;27;20220;-54
2022/10/01 10:19:08;;;;;;;2.63;1.48;;;14.60;99.90;;;;;;5133847;27;20193;-54
2022/10/01 10:21:34;;;;;;;2.72;1.38;;;15.20;99.90;;;;;;5134230;27;20674;-54
2022/10/01 10:24:02;;;;;;;1.88;1.30;;;15.80;99.90;;;;;;5133871;27;20182;-54
2022/10/01 10:26:31;;;;;;;2.05;1.40;;;15.80;99.90;;;;;;5132658;27;20175;-54
2022/10/01 10:29:00;;;;;;;5.30;1.70;;;15.90;99.90;;;;;;5133695;27;20581;-53
2022/10/01 10:31:49;;;;;;;6.07;2.00;;;15.80;99.90;;;;;;5132443;27;20205;-54
2022/10/01 10:34:30;;;;;;;3.60;1.88;;;15.50;99.90;;;;;;5133585;27;20171;-54
2022/10/01 10:36:57;;;;;;;3.83;2.20;;;15.60;99.90;;;;;;5133800;27;20190;-54
2022/10/01 10:39:34;;;;;;;3.53;2.00;;;15.80;99.90;;;;;;5133377;27;20222;-54
2022/10/01 10:42:02;;;;;;;6.13;2.13;;;16.00;99.90;;;;;;5133492;27;20170;-54
2022/10/01 10:44:33;;;;;;;7.18;2.22;;;15.80;99.90;;;;;;5133094;27;20385;-54
2022/10/01 10:47:01;;;;;;;4.78;2.03;;;15.70;99.90;;;;;;5133707;27;20195;-54
2022/10/01 10:49:30;;;;;;;6.10;2.60;;;15.90;99.90;;;;;;5133588;27;20625;-54
2022/10/01 10:51:59;;;;;;;8.15;3.00;;;15.90;99.90;;;;;;5133354;27;20167;-57
2022/10/01 10:54:40;;;;;;;6.53;2.33;;;15.90;99.90;;;;;;5133059;27;20215;-56
2022/10/01 10:57:17;;;;;;;7.20;2.65;;;15.80;99.90;;;;;;5133936;27;20172;-56
2022/10/01 11:00:08;;;;;;;12.88;3.63;;;15.80;99.90;;;;;;5133349;27;20203;-56
2022/10/01 11:02:34;;;;;;;9.90;2.28;;;15.80;99.90;;;;;;5132993;27;20620;-56
2022/10/01 11:05:04;;;;;;;5.13;2.30;;;15.80;99.90;;;;;;5131499;27;20172;-56
2022/10/01 11:07:31;;;;;;;6.18;2.70;;;15.90;99.90;;;;;;5132681;27;20186;-56
2022/10/01 11:10:14;;;;;;;6.80;2.30;;;15.90;99.90;;;;;;5132989;27;20160;-56
2022/10/01 11:13:07;;;;;;;8.82;3.40;;;15.90;99.90;;;;;;5132810;27;20160;-56
2022/10/01 11:15:51;;;;;;;6.05;2.15;;;16.00;99.90;;;;;;5132936;27;20156;-56
2022/10/01 11:18:54;;;;;;;6.63;2.67;;;16.00;99.90;;;;;;5132470;27;20192;-56
2022/10/01 11:22:03;;;;;;;7.90;2.22;;;16.10;99.90;;;;;;5132629;27;20186;-56
2022/10/01 11:24:40;;;;;;;7.68;2.17;;;16.00;99.90;;;;;;5089155;28;20168;-56
2022/10/01 11:27:22;;;;;;;5.15;1.90;;;15.90;99.90;;;;;;5127119;27;20179;-57
2022/10/01 11:30:15;;;;;;;5.75;1.67;;;19.00;99.90;;;;;;5132582;27;20222;-56
2022/10/01 11:32:44;;;;;;;5.95;1.45;;;15.60;99.90;;;;;;5132741;27;20179;-56
2022/10/01 11:35:32;;;;;;;5.65;2.03;;;15.60;99.90;;;;;;5131183;27;20168;-56
2022/10/01 11:38:28;;;;;;;2.85;2.17;;;15.50;99.90;;;;;;5132880;27;20174;-56
2022/10/01 11:41:02;;;;;;;5.35;1.65;;;15.50;99.90;;;;;;5132809;27;20236;-57
2022/10/01 11:43:41;;;;;;;9.68;2.40;;;15.50;99.90;;;;;;5131335;27;20540;-57
2022/10/01 11:46:24;;;;;;;5.35;2.30;;;15.50;99.90;;;;;;5132963;27;20621;-57
2022/10/01 11:49:01;;;;;;;5.30;2.05;;;15.50;99.90;;;;;;5132535;27;20167;-57
2022/10/01 11:51:33;;;;;;;7.18;2.45;;;15.40;99.90;;;;;;5132446;27;20167;-57
2022/10/01 11:54:06;;;;;;;6.95;2.83;;;15.30;99.90;;;;;;5132283;27;20199;-57
2022/10/01 11:59:52;;;;;;;3.58;2.03;;;15.20;99.90;;;;;;5132681;28;20210;-57
2022/10/01 12:02:54;;;;;;;6.63;2.17;;;15.00;99.90;;;;;;5132469;27;20159;-56
2022/10/01 12:05:30;;;;;;;3.67;2.10;;;15.00;99.90;;;;;;5132151;27;20194;-56
2022/10/01 12:08:18;;;;;;;6.93;2.22;;;15.00;99.90;;;;;;5132581;27;20175;-56
2022/10/01 12:10:49;;;;;;;4.70;2.38;;;14.90;99.90;;;;;;5132332;27;20164;-56
2022/10/01 12:13:15;;;;;;;7.28;2.40;;;14.80;99.90;;;;;;5132318;27;20171;-57
2022/10/01 12:16:05;;;;;;;7.10;2.15;;;14.70;99.90;;;;;;5132655;27;20163;-57
2022/10/01 12:18:50;;;;;;;2.20;1.40;;;14.70;99.90;;;;;;5132167;27;20251;-57
2022/10/01 12:21:25;;;;;;;3.47;1.40;;;14.80;99.90;;;;;;5135263;27;20214;-57
2022/10/01 12:23:57;;;;;;;3.28;1.30;;;14.90;99.90;;;;;;5134961;27;20159;-57
2022/10/01 12:26:26;;;;;;;3.55;1.30;;;14.80;99.90;;;;;;5135734;27;20176;-57
2022/10/01 12:29:24;;;;;;;5.03;1.75;;;14.80;99.90;;;;;;5135691;27;20179;-57
2022/10/01 12:32:33;;;;;;;3.38;1.88;;;14.80;99.90;;;;;;5136030;27;20187;-57
2022/10/01 12:35:24;;;;;;;5.15;1.67;;;14.90;99.90;;;;;;5124221;27;20184;-57
2022/10/01 12:38:16;;;;;;;2.88;1.70;;;15.40;99.90;;;;;;5134953;27;20585;-57
2022/10/01 12:40:51;;;;;;;3.28;1.98;;;15.70;99.90;;;;;;5135858;27;20228;-57
2022/10/01 12:43:45;;;;;;;4.65;1.80;;;15.60;99.90;;;;;;5136015;27;20251;-57
2022/10/01 12:46:36;;;;;;;4.93;1.88;;;16.00;99.90;;;;;;5134897;27;20277;-57
2022/10/01 12:49:06;;;;;;;3.17;1.60;;;16.30;99.90;;;;;;5135500;27;20168;-57
2022/10/01 12:51:58;;;;;;;5.60;1.70;;;16.10;99.90;;;;;;5134715;27;20164;-57
2022/10/01 12:54:44;;;;;;;5.55;1.63;;;15.90;99.90;;;;;;5129340;27;20215;-57
2022/10/01 12:57:37;;;;;;;5.30;2.00;;;16.00;99.90;;;;;;5135248;27;20191;-57
2022/10/01 13:00:19;;;;;;;4.85;1.77;;;16.00;99.90;;;;;;5134969;27;20203;-57
2022/10/01 13:03:29;;;;;;;3.22;2.10;;;16.00;99.90;;;;;;5133957;27;20225;-57
2022/10/01 13:06:08;;;;;;;6.22;2.20;;;15.80;99.90;;;;;;5135316;27;20209;-57
2022/10/01 13:08:52;;;;;;;5.80;2.00;;;15.70;99.90;;;;;;5135505;27;20156;-57
2022/10/01 13:11:44;;;;;;;8.85;2.08;;;15.70;99.90;;;;;;5134944;27;20224;-57
2022/10/01 13:14:16;;;;;;;3.90;1.90;;;16.00;99.90;;;;;;5134876;27;20539;-57